Time;durP1;ratioP1;P1;durP2;ratioP2;P2;SDS_P1;SDS_P2;PMS_P1;PMS_P2;Temp;Humidity;BMP_temperature;BMP_pressure;BME280_temperature;BME280_humidity;BME280_pressure;Samples;Min_cycle;Max_cycle;Signal;HPM_P1;HPM_P2
2023/03/17 00:02:23;;;;;;;6.33;4.40;;;;;;;4.23;96.00;97912.72;5050917;28;20231;-78
2023/03/17 00:04:51;;;;;;;7.90;5.13;;;;;;;4.36;94.38;97913.84;5051069;28;20212;-77
2023/03/17 00:07:19;;;;;;;6.57;4.23;;;;;;;4.32;94.23;97904.44;5051095;28;20207;-77
2023/03/17 00:09:45;;;;;;;5.60;4.53;;;;;;;4.25;94.94;97903.06;5050506;28;20214;-78
2023/03/17 00:12:14;;;;;;;8.23;4.80;;;;;;;4.19;96.23;97908.56;5050487;28;20231;-77
2023/03/17 00:14:41;;;;;;;5.03;4.30;;;;;;;4.16;97.58;97898.25;5051832;28;20205;-77
2023/03/17 00:17:11;;;;;;;6.50;4.87;;;;;;;4.23;96.09;97894.41;5054325;28;20217;-78
2023/03/17 00:19:38;;;;;;;6.47;5.00;;;;;;;4.23;95.99;97873.47;5054168;28;20210;-77
2023/03/17 00:22:14;;;;;;;6.70;4.90;;;;;;;4.26;96.12;97873.34;5054359;28;20535;-77
2023/03/17 00:24:42;;;;;;;7.87;5.13;;;;;;;4.44;95.24;97862.00;5054470;28;20585;-78
2023/03/17 00:27:11;;;;;;;6.73;4.63;;;;;;;4.55;94.79;97864.94;5054256;28;20215;-78
2023/03/17 00:29:38;;;;;;;6.00;4.80;;;;;;;4.57;94.86;97868.31;5054297;28;20685;-77
2023/03/17 00:32:06;;;;;;;6.80;4.20;;;;;;;4.58;95.19;97864.75;5054536;28;20238;-77
2023/03/17 00:34:33;;;;;;;6.77;4.83;;;;;;;4.57;95.75;97868.31;5054644;28;20687;-77
2023/03/17 00:36:59;;;;;;;6.57;4.90;;;;;;;4.53;96.51;97877.22;5054066;28;20693;-77
2023/03/17 00:39:26;;;;;;;5.80;4.30;;;;;;;4.58;95.54;97864.75;5053620;28;20207;-77
2023/03/17 00:41:53;;;;;;;6.83;5.20;;;;;;;4.65;94.30;97860.91;5054181;28;20226;-77
2023/03/17 00:44:20;;;;;;;5.90;4.37;;;;;;;4.73;94.10;97852.69;5053785;28;20208;-77
2023/03/17 00:46:46;;;;;;;6.60;4.60;;;;;;;4.71;94.32;97850.13;5053580;28;20681;-78
2023/03/17 00:49:16;;;;;;;5.77;4.77;;;;;;;4.65;95.26;97855.69;5053591;28;20215;-77
2023/03/17 00:51:43;;;;;;;5.83;4.70;;;;;;;4.55;96.38;97864.94;5053730;28;20234;-77
2023/03/17 00:54:10;;;;;;;6.40;4.80;;;;;;;4.49;97.92;97870.47;5053539;28;20741;-77
2023/03/17 00:56:38;;;;;;;7.93;4.87;;;;;;;4.45;97.98;97868.91;5053993;28;20222;-77
2023/03/17 00:59:19;;;;;;;7.87;4.67;;;;;;;4.41;98.97;97850.84;5053559;28;20693;-77
2023/03/17 01:01:46;;;;;;;4.93;4.27;;;;;;;4.37;99.42;97855.38;5053900;28;20224;-77
2023/03/17 01:04:13;;;;;;;6.60;4.33;;;;;;;4.33;100.00;97848.59;5053870;28;20221;-77
2023/03/17 01:06:39;;;;;;;6.07;4.70;;;;;;;4.30;100.00;97843.53;5053336;28;20280;-77
2023/03/17 01:09:07;;;;;;;5.30;4.03;;;;;;;4.29;100.00;97857.50;5053989;28;20293;-77
2023/03/17 01:11:34;;;;;;;6.13;4.60;;;;;;;4.35;100.00;97840.66;5053738;28;20301;-77
2023/03/17 01:14:02;;;;;;;5.13;4.47;;;;;;;4.38;100.00;97836.13;5053716;28;20210;-77
2023/03/17 01:16:30;;;;;;;6.70;4.90;;;;;;;4.35;100.00;97846.72;5053500;28;20311;-78
2023/03/17 01:18:57;;;;;;;5.67;4.50;;;;;;;4.32;100.00;97849.50;5053149;28;20219;-78
2023/03/17 01:21:24;;;;;;;4.93;3.97;;;;;;;4.34;100.00;97844.22;5052532;28;20370;-78
2023/03/17 01:23:50;;;;;;;6.30;4.67;;;;;;;4.38;100.00;97838.75;5052956;28;20321;-78
2023/03/17 01:26:17;;;;;;;6.10;4.60;;;;;;;4.43;100.00;97834.13;5052634;28;20219;-78
2023/03/17 01:28:44;;;;;;;6.47;4.90;;;;;;;4.49;100.00;97839.06;5052716;28;20211;-78
2023/03/17 01:31:11;;;;;;;6.37;5.17;;;;;;;4.55;100.00;97837.91;5052475;28;20327;-78
2023/03/17 01:33:39;;;;;;;7.13;5.20;;;;;;;4.61;100.00;97833.22;5052729;28;20671;-78
2023/03/17 01:36:06;;;;;;;6.20;4.73;;;;;;;4.66;100.00;97828.59;5052720;28;20303;-77
2023/03/17 01:38:33;;;;;;;9.87;5.40;;;;;;;4.73;98.13;97827.38;5052662;28;20215;-78
2023/03/17 01:41:00;;;;;;;7.67;4.70;;;;;;;4.73;97.87;97811.66;5052173;28;20235;-77
2023/03/17 01:43:28;;;;;;;7.80;5.17;;;;;;;4.70;98.50;97817.03;5052540;28;20229;-77
2023/03/17 01:46:20;;;;;;;9.20;6.03;;;;;;;4.69;100.00;97825.81;5052375;28;20623;-77
2023/03/17 01:48:55;;;;;;;7.20;5.63;;;;;;;4.64;100.00;97822.59;5052333;28;20288;-77
2023/03/17 01:51:30;;;;;;;7.13;5.67;;;;;;;4.59;100.00;97813.28;5052949;28;20249;-77
2023/03/17 01:53:59;;;;;;;7.93;5.77;;;;;;;4.51;100.00;97824.13;5052379;28;20703;-77
2023/03/17 01:56:27;;;;;;;7.47;5.60;;;;;;;4.46;100.00;97818.28;5052202;28;20221;-78
2023/03/17 01:58:56;;;;;;;7.30;5.20;;;;;;;4.42;100.00;97815.88;5051747;28;20210;-77
2023/03/17 02:01:29;;;;;;;6.80;5.13;;;;;;;4.42;100.00;97814.13;5051816;28;20237;-78
2023/03/17 02:03:58;;;;;;;6.70;5.40;;;;;;;4.36;100.00;97811.81;5052105;28;20273;-78
2023/03/17 02:06:25;;;;;;;7.30;5.30;;;;;;;4.35;100.00;97810.09;5052025;28;20211;-77
2023/03/17 02:08:52;;;;;;;7.90;5.60;;;;;;;4.33;100.00;97806.72;5051937;28;20218;-77
2023/03/17 02:11:19;;;;;;;7.87;5.70;;;;;;;4.33;100.00;97811.13;5051345;28;20284;-77
2023/03/17 02:13:46;;;;;;;7.87;5.20;;;;;;;4.31;100.00;97812.97;5051866;28;20294;-77
2023/03/17 02:16:14;;;;;;;7.40;5.10;;;;;;;4.26;100.00;97815.81;5051928;28;20209;-78
2023/03/17 02:18:42;;;;;;;7.83;5.77;;;;;;;4.20;100.00;97810.88;5051892;28;20204;-78
2023/03/17 02:21:30;;;;;;;7.90;5.97;;;;;;;4.21;100.00;97814.34;5051083;28;20242;-78
2023/03/17 02:23:57;;;;;;;8.27;5.57;;;;;;;4.18;100.00;97807.50;5051553;28;20276;-78
2023/03/17 02:26:26;;;;;;;7.63;5.53;;;;;;;4.18;100.00;97804.88;5051896;28;20215;-78
2023/03/17 02:28:53;;;;;;;7.33;5.70;;;;;;;4.18;100.00;97807.50;5051648;28;20232;-77
2023/03/17 02:31:19;;;;;;;6.63;4.97;;;;;;;4.16;100.00;97816.34;5051325;28;20235;-78
2023/03/17 02:33:46;;;;;;;7.03;5.60;;;;;;;4.17;100.00;97821.47;5051582;28;20207;-77
2023/03/17 02:36:13;;;;;;;8.43;5.50;;;;;;;4.14;100.00;97821.63;5051447;28;20214;-78
2023/03/17 02:38:41;;;;;;;7.27;5.40;;;;;;;4.17;100.00;97821.47;5051369;28;20266;-77
2023/03/17 02:41:08;;;;;;;9.00;5.90;;;;;;;4.16;100.00;97814.56;5051130;28;20237;-77
2023/03/17 02:43:35;;;;;;;10.87;5.47;;;;;;;4.18;100.00;97807.50;5051462;28;20395;-77
2023/03/17 02:46:02;;;;;;;9.47;5.97;;;;;;;4.19;100.00;97800.47;5051284;28;20210;-78
2023/03/17 02:48:28;;;;;;;8.47;5.83;;;;;;;4.20;100.00;97805.66;5054305;28;20211;-78
2023/03/17 02:50:55;;;;;;;8.10;6.10;;;;;;;4.22;100.00;97795.94;5060621;28;20233;-78
2023/03/17 02:53:21;;;;;;;10.10;6.33;;;;;;;4.29;100.00;97799.94;5060050;28;20236;-78
2023/03/17 02:55:49;;;;;;;9.50;6.80;;;;;;;4.34;100.00;97787.50;5060527;28;20560;-79
2023/03/17 02:58:16;;;;;;;8.07;6.23;;;;;;;4.37;100.00;97792.59;5059149;28;20296;-78
2023/03/17 03:00:42;;;;;;;8.97;6.63;;;;;;;4.35;100.00;97786.56;5061446;28;20231;-77
2023/03/17 03:03:09;;;;;;;8.03;6.30;;;;;;;4.32;100.00;97784.13;5055561;28;20246;-78
2023/03/17 03:05:35;;;;;;;7.83;6.00;;;;;;;4.34;100.00;97782.25;5052658;28;20218;-77
2023/03/17 03:08:02;;;;;;;7.67;6.20;;;;;;;4.35;100.00;97786.56;5052434;28;20390;-78
2023/03/17 03:10:28;;;;;;;7.77;5.60;;;;;;;4.38;100.00;97790.78;5052000;28;20216;-77
2023/03/17 03:12:56;;;;;;;8.50;6.30;;;;;;;4.42;100.00;97781.88;5051969;28;20231;-77
2023/03/17 03:15:22;;;;;;;9.07;6.03;;;;;;;4.42;100.00;97774.03;5052340;28;20649;-78
2023/03/17 03:17:50;;;;;;;11.07;6.87;;;;;;;4.51;99.55;97768.31;5051757;28;20214;-78
2023/03/17 03:20:17;;;;;;;8.07;6.30;;;;;;;4.50;98.54;97766.63;5051577;28;20226;-78
2023/03/17 03:22:44;;;;;;;9.87;6.57;;;;;;;4.44;98.80;97770.41;5051905;28;20216;-78
2023/03/17 03:25:10;;;;;;;8.87;6.17;;;;;;;4.37;99.77;97776.03;5052019;28;20238;-78
2023/03/17 03:27:37;;;;;;;9.57;5.97;;;;;;;4.31;99.99;97771.97;5051577;28;20674;-78
2023/03/17 03:30:07;;;;;;;6.90;5.83;;;;;;;4.24;100.00;97770.59;5051486;28;20216;-77
2023/03/17 03:32:33;;;;;;;7.97;6.07;;;;;;;4.20;100.00;97787.34;5051411;28;20236;-77
2023/03/17 03:35:00;;;;;;;7.13;6.03;;;;;;;4.16;100.00;97783.16;5051934;28;20215;-77
2023/03/17 03:37:26;;;;;;;7.70;5.87;;;;;;;4.02;100.00;97775.16;5051857;28;20223;-77
2023/03/17 03:39:53;;;;;;;8.23;5.80;;;;;;;3.95;100.00;97781.63;5051436;28;20208;-77
2023/03/17 03:42:19;;;;;;;7.30;5.70;;;;;;;3.86;100.00;97784.66;5051144;28;20234;-77
2023/03/17 03:44:46;;;;;;;7.23;6.10;;;;;;;3.80;100.00;97779.72;5051293;28;20211;-77
2023/03/17 03:47:14;;;;;;;8.47;6.50;;;;;;;3.74;100.00;97780.03;5051229;28;20211;-77
2023/03/17 03:49:40;;;;;;;8.40;6.60;;;;;;;3.65;100.00;97784.84;5052294;28;20210;-77
2023/03/17 03:52:07;;;;;;;6.90;5.93;;;;;;;3.58;100.00;97788.66;5055309;28;20246;-77
2023/03/17 03:54:34;;;;;;;8.93;6.43;;;;;;;3.53;100.00;97791.50;5055663;28;20471;-77
2023/03/17 03:57:00;;;;;;;8.13;6.33;;;;;;;3.50;100.00;97791.66;5054911;28;20222;-76
2023/03/17 03:59:27;;;;;;;8.73;6.30;;;;;;;3.47;100.00;97799.63;5054996;28;20225;-77
2023/03/17 04:01:53;;;;;;;8.53;6.73;;;;;;;3.47;100.00;97791.78;5055243;28;20242;-77
2023/03/17 04:04:21;;;;;;;8.97;6.40;;;;;;;3.50;100.00;97783.81;5055378;28;20210;-77
2023/03/17 04:06:48;;;;;;;9.23;6.50;;;;;;;3.42;100.00;97788.53;5055226;28;20372;-77
2023/03/17 04:09:14;;;;;;;7.80;5.90;;;;;;;3.36;100.00;97788.81;5054976;28;20399;-77
2023/03/17 04:11:41;;;;;;;8.23;6.03;;;;;;;3.28;100.00;97790.94;5055187;28;20229;-77
2023/03/17 04:14:07;;;;;;;7.87;6.20;;;;;;;3.26;100.00;97781.47;5054870;28;20227;-77
2023/03/17 04:16:34;;;;;;;8.67;6.80;;;;;;;3.21;100.00;97784.31;5055091;28;20213;-77
2023/03/17 04:19:01;;;;;;;9.33;5.83;;;;;;;3.15;100.00;97773.28;5054887;28;20285;-77
2023/03/17 04:21:29;;;;;;;8.77;6.20;;;;;;;3.12;100.00;97784.72;5054564;28;20247;-77
2023/03/17 04:23:55;;;;;;;8.77;6.63;;;;;;;3.09;100.00;97782.25;5054968;28;20229;-77
2023/03/17 04:26:23;;;;;;;8.87;6.77;;;;;;;3.07;100.00;97780.63;5054700;28;20636;-77
2023/03/17 04:28:49;;;;;;;9.00;6.60;;;;;;;3.05;100.00;97772.84;5054390;28;20236;-77
2023/03/17 04:31:16;;;;;;;8.90;6.90;;;;;;;3.02;100.00;97774.75;5053817;28;20228;-77
2023/03/17 04:33:42;;;;;;;9.03;6.70;;;;;;;2.96;100.00;97767.22;5054192;28;20224;-77
2023/03/17 04:36:16;;;;;;;8.50;5.90;;;;;;;2.91;100.00;97779.59;5054275;28;20209;-77
2023/03/17 04:38:44;;;;;;;8.53;6.33;;;;;;;2.88;100.00;97777.97;5054443;28;20204;-77
2023/03/17 04:41:11;;;;;;;8.43;6.17;;;;;;;2.86;100.00;97765.91;5053910;28;20231;-77
2023/03/17 04:43:37;;;;;;;8.00;6.03;;;;;;;2.86;100.00;97772.00;5053818;28;20285;-77
2023/03/17 04:46:04;;;;;;;9.73;6.60;;;;;;;2.88;100.00;97772.75;5054231;28;20210;-77
2023/03/17 04:48:31;;;;;;;9.53;6.97;;;;;;;2.90;100.00;97767.47;5053834;28;20619;-77
2023/03/17 04:50:58;;;;;;;7.50;5.93;;;;;;;2.89;100.00;97761.41;5053676;28;20362;-77
2023/03/17 04:53:25;;;;;;;7.87;6.33;;;;;;;2.89;100.00;97766.63;5053297;28;20230;-77
2023/03/17 04:55:53;;;;;;;6.73;5.53;;;;;;;2.88;100.00;97754.50;5053053;28;20698;-76
2023/03/17 04:58:20;;;;;;;8.20;6.20;;;;;;;2.86;100.00;97765.91;5053514;28;20239;-77
2023/03/17 05:00:46;;;;;;;7.37;5.33;;;;;;;2.85;100.00;97754.66;5052567;28;20229;-79
2023/03/17 05:03:13;;;;;;;9.17;6.70;;;;;;;2.85;100.00;97759.88;5053232;28;20205;-76
2023/03/17 05:05:39;;;;;;;8.50;6.20;;;;;;;2.84;100.00;97746.88;5053116;28;20207;-76
2023/03/17 05:08:06;;;;;;;9.70;6.30;;;;;;;2.85;100.00;97752.03;5053151;28;20209;-76
2023/03/17 05:10:32;;;;;;;9.07;6.80;;;;;;;2.83;100.00;97756.50;5052532;28;20208;-77
2023/03/17 05:13:00;;;;;;;8.47;6.67;;;;;;;2.81;100.00;97747.84;5052990;28;20233;-76
2023/03/17 05:15:26;;;;;;;8.03;6.10;;;;;;;2.79;100.00;97748.84;5053202;28;20210;-76
2023/03/17 05:17:53;;;;;;;8.37;5.77;;;;;;;2.79;100.00;97752.31;5052974;28;20216;-76
2023/03/17 05:20:20;;;;;;;7.20;5.93;;;;;;;2.77;100.00;97746.31;5052588;28;20205;-76
2023/03/17 05:22:46;;;;;;;7.30;6.10;;;;;;;2.78;100.00;97748.00;5052610;28;20216;-77
2023/03/17 05:25:12;;;;;;;7.23;5.90;;;;;;;2.72;100.00;97743.06;5052687;28;20205;-76
2023/03/17 05:27:39;;;;;;;7.73;5.90;;;;;;;2.71;100.00;97753.56;5052876;28;20589;-77
2023/03/17 05:30:08;;;;;;;8.03;6.20;;;;;;;2.73;100.00;97755.19;5052279;28;20216;-76
2023/03/17 05:32:36;;;;;;;7.70;6.40;;;;;;;2.74;100.00;97762.09;5052408;28;20234;-76
2023/03/17 05:35:02;;;;;;;7.37;6.17;;;;;;;2.76;100.00;97768.09;5052401;28;20283;-76
2023/03/17 05:37:29;;;;;;;8.03;6.30;;;;;;;2.77;100.00;97761.97;5052466;28;20703;-77
2023/03/17 05:39:55;;;;;;;8.57;6.67;;;;;;;2.74;100.00;97762.09;5052312;28;20291;-76
2023/03/17 05:42:23;;;;;;;9.60;6.33;;;;;;;2.73;100.00;97775.19;5052690;28;20658;-77
2023/03/17 05:44:49;;;;;;;11.80;7.07;;;;;;;2.74;100.00;97772.53;5052685;28;20207;-77
2023/03/17 05:47:17;;;;;;;9.70;7.27;;;;;;;2.74;100.00;97775.13;5052631;28;20299;-77
2023/03/17 05:49:43;;;;;;;9.10;6.57;;;;;;;2.78;100.00;97768.88;5052027;28;20224;-77
2023/03/17 05:52:10;;;;;;;9.80;7.30;;;;;;;2.81;100.00;97763.50;5051847;28;20231;-77
2023/03/17 05:54:36;;;;;;;9.33;6.77;;;;;;;2.84;100.00;97759.91;5052440;28;20216;-77
2023/03/17 05:57:03;;;;;;;9.07;7.23;;;;;;;2.92;100.00;97766.50;5052417;28;20209;-77
2023/03/17 05:59:30;;;;;;;11.93;7.97;;;;;;;2.99;100.00;97762.69;5051654;28;20213;-77
2023/03/17 06:01:56;;;;;;;11.37;8.10;;;;;;;3.21;100.00;97757.34;5052013;28;20321;-77
2023/03/17 06:04:25;;;;;;;15.50;7.90;;;;;;;3.35;100.00;97747.94;5051894;28;20202;-77
2023/03/17 06:06:51;;;;;;;10.60;7.73;;;;;;;3.42;100.00;97746.75;5051883;28;20402;-77
2023/03/17 06:09:18;;;;;;;11.30;8.17;;;;;;;3.44;100.00;97750.16;5051661;28;20210;-77
2023/03/17 06:11:44;;;;;;;10.90;7.83;;;;;;;3.42;100.00;97749.34;5051529;28;20322;-77
2023/03/17 06:14:12;;;;;;;9.87;7.37;;;;;;;3.35;100.00;97747.94;5051382;28;20795;-77
2023/03/17 06:16:38;;;;;;;8.93;7.30;;;;;;;3.24;100.00;97750.22;5051727;28;20306;-78
2023/03/17 06:19:05;;;;;;;11.33;8.17;;;;;;;3.25;100.00;97764.13;5051802;28;20218;-77
2023/03/17 06:21:32;;;;;;;10.47;7.77;;;;;;;3.32;100.00;97766.41;5051393;28;20270;-78
2023/03/17 06:24:01;;;;;;;10.60;7.40;;;;;;;3.39;100.00;97767.78;5051755;28;20218;-77
2023/03/17 06:26:28;;;;;;;13.27;8.10;;;;;;;3.49;100.00;97769.03;5052066;28;20619;-78
2023/03/17 06:28:54;;;;;;;13.77;8.37;;;;;;;3.68;100.00;97764.63;5051716;28;20212;-78
2023/03/17 06:31:22;;;;;;;12.87;8.13;;;;;;;3.73;100.00;97772.28;5051246;28;20703;-77
2023/03/17 06:33:49;;;;;;;11.07;8.20;;;;;;;3.78;100.00;97773.75;5051176;28;20231;-77
2023/03/17 06:36:16;;;;;;;11.67;8.47;;;;;;;3.74;100.00;97772.19;5051458;28;20241;-77
2023/03/17 06:38:44;;;;;;;13.33;7.87;;;;;;;3.89;100.00;97766.22;5051339;28;20262;-77
2023/03/17 06:41:11;;;;;;;12.37;7.63;;;;;;;3.91;100.00;97767.00;5051295;28;20252;-77
2023/03/17 06:43:38;;;;;;;12.00;7.23;;;;;;;3.92;100.00;97771.28;5051250;28;20203;-77
2023/03/17 06:46:06;;;;;;;11.80;7.77;;;;;;;4.00;100.00;97756.09;5051485;28;20300;-77
2023/03/17 06:48:32;;;;;;;10.13;7.77;;;;;;;4.18;100.00;97742.13;5051361;28;20253;-77
2023/03/17 06:50:59;;;;;;;11.13;8.23;;;;;;;4.24;100.00;97744.44;5051135;28;20265;-77
2023/03/17 06:53:26;;;;;;;10.13;7.63;;;;;;;4.28;100.00;97750.34;5051118;28;20322;-77
2023/03/17 06:55:55;;;;;;;9.97;7.67;;;;;;;4.35;100.00;97752.56;5051267;28;20208;-77
2023/03/17 06:58:21;;;;;;;12.50;8.40;;;;;;;4.37;100.00;97755.97;5051790;28;20218;-77
2023/03/17 07:00:48;;;;;;;10.27;8.20;;;;;;;4.55;100.00;97764.63;5051223;28;20692;-77
2023/03/17 07:03:15;;;;;;;10.83;8.70;;;;;;;4.92;100.00;97757.41;5051218;28;20203;-77
2023/03/17 07:05:42;;;;;;;9.70;7.70;;;;;;;5.25;100.00;97758.22;5051251;28;20241;-77
2023/03/17 07:08:09;;;;;;;9.83;7.53;;;;;;;5.52;100.00;97751.50;5050903;28;20218;-77
2023/03/17 07:10:37;;;;;;;9.97;7.17;;;;;;;5.75;100.00;97751.03;5050661;28;20265;-77
2023/03/17 07:13:06;;;;;;;10.27;7.50;;;;;;;5.92;100.00;97748.34;5050786;28;20240;-78
2023/03/17 07:15:34;;;;;;;9.07;7.13;;;;;;;6.10;98.66;97743.84;5051098;28;20219;-77
2023/03/17 07:18:01;;;;;;;10.60;7.07;;;;;;;6.28;97.67;97742.78;5051590;28;20583;-77
2023/03/17 07:20:27;;;;;;;9.10;6.30;;;;;;;6.41;95.73;97747.22;5050894;28;20219;-77
2023/03/17 07:22:54;;;;;;;8.70;5.90;;;;;;;6.56;92.89;97738.44;5051199;28;20211;-77
2023/03/17 07:25:21;;;;;;;7.73;6.00;;;;;;;6.72;91.72;97738.38;5054493;28;20211;-77
2023/03/17 07:27:47;;;;;;;11.43;5.80;;;;;;;6.82;89.03;97724.59;5054721;28;20228;-77
2023/03/17 07:30:17;;;;;;;7.50;6.23;;;;;;;6.91;88.70;97729.25;5054736;28;20619;-77
2023/03/17 07:32:44;;;;;;;9.37;5.77;;;;;;;7.06;88.18;97738.84;5054950;28;20212;-77
2023/03/17 07:35:11;;;;;;;8.63;6.10;;;;;;;7.11;85.98;97731.53;5055265;28;20208;-77
2023/03/17 07:37:38;;;;;;;8.03;6.17;;;;;;;7.06;85.85;97738.84;5054694;28;20204;-78
2023/03/17 07:40:05;;;;;;;6.87;5.17;;;;;;;6.98;86.80;97743.75;5052947;28;20212;-77
2023/03/17 07:42:32;;;;;;;8.83;6.20;;;;;;;6.99;87.19;97750.69;5054720;28;20317;-77
2023/03/17 07:44:59;;;;;;;8.17;6.20;;;;;;;7.10;86.58;97750.03;5053908;28;20679;-76
2023/03/17 07:47:27;;;;;;;9.53;5.47;;;;;;;7.16;85.71;97732.09;5054167;28;20207;-78
2023/03/17 07:49:54;;;;;;;9.47;6.47;;;;;;;7.23;85.09;97736.88;5054636;28;20581;-77
2023/03/17 07:52:20;;;;;;;6.67;5.80;;;;;;;7.29;84.64;97728.59;5052626;28;20228;-77
2023/03/17 07:54:47;;;;;;;8.17;5.97;;;;;;;7.39;83.76;97726.22;5054584;28;20257;-77
2023/03/17 07:57:15;;;;;;;8.00;6.25;;;;;;;7.56;84.13;97713.72;5053403;28;20438;-77
2023/03/17 07:59:41;;;;;;;10.00;6.50;;;;;;;7.69;83.08;97706.75;5051578;28;20213;-77
2023/03/17 08:02:14;;;;;;;8.13;5.87;;;;;;;7.78;83.13;97713.19;5054019;28;20239;-78
2023/03/17 08:04:42;;;;;;;8.53;5.50;;;;;;;7.88;83.58;97712.50;5054331;28;20232;-75
2023/03/17 08:07:09;;;;;;;7.17;6.00;;;;;;;7.95;82.51;97710.31;5053034;28;20219;-75
2023/03/17 08:09:36;;;;;;;6.53;5.27;;;;;;;8.06;83.33;97718.31;5053574;28;20307;-75
2023/03/17 08:12:02;;;;;;;8.83;5.70;;;;;;;8.13;83.41;97723.09;5054131;28;20265;-76
2023/03/17 08:14:29;;;;;;;5.80;4.90;;;;;;;8.20;82.75;97727.03;5054233;28;20237;-77
2023/03/17 08:16:56;;;;;;;7.63;6.00;;;;;;;8.41;81.45;97728.25;5054830;28;20204;-76
2023/03/17 08:19:23;;;;;;;7.70;5.20;;;;;;;8.51;80.95;97731.13;5054486;28;20212;-75
2023/03/17 08:21:51;;;;;;;7.93;5.83;;;;;;;8.74;79.86;97710.16;5054655;28;20245;-76
2023/03/17 08:24:17;;;;;;;6.93;5.40;;;;;;;8.95;80.01;97707.84;5054644;28;20211;-76
2023/03/17 08:26:47;;;;;;;9.03;5.90;;;;;;;9.11;80.10;97701.38;5054163;28;20212;-77
2023/03/17 08:29:14;;;;;;;7.43;5.40;;;;;;;9.12;80.94;97704.88;5054204;28;20213;-76
2023/03/17 08:31:41;;;;;;;11.47;6.30;;;;;;;9.30;76.23;97685.13;5053725;28;20695;-76
2023/03/17 08:34:08;;;;;;;7.97;5.50;;;;;;;9.39;76.50;97695.00;5054418;28;20228;-77
2023/03/17 08:36:35;;;;;;;7.70;5.53;;;;;;;9.49;76.44;97701.31;5053246;28;20720;-77
2023/03/17 08:39:04;;;;;;;10.07;5.70;;;;;;;9.62;77.83;97699.50;5054476;28;20623;-77
2023/03/17 08:41:31;;;;;;;8.00;5.27;;;;;;;9.75;78.63;97708.19;5053640;28;20242;-76
2023/03/17 08:43:58;;;;;;;7.07;5.73;;;;;;;9.87;76.56;97688.84;5053918;28;20203;-75
2023/03/17 08:46:27;;;;;;;9.23;6.10;;;;;;;9.88;78.91;97688.72;5053330;28;20244;-75
2023/03/17 08:48:56;;;;;;;6.47;5.47;;;;;;;9.99;79.87;97701.13;5053599;28;20225;-76
2023/03/17 08:51:24;;;;;;;8.40;5.93;;;;;;;10.11;79.17;97697.63;5052985;28;20692;-75
2023/03/17 08:53:51;;;;;;;8.97;5.37;;;;;;;10.20;78.19;97699.56;5053185;28;20277;-76
2023/03/17 08:56:18;;;;;;;7.70;5.07;;;;;;;10.36;77.46;97682.47;5053416;28;20303;-76
2023/03/17 08:58:45;;;;;;;6.50;5.10;;;;;;;10.55;77.59;97687.19;5052955;28;20206;-75
2023/03/17 09:01:13;;;;;;;5.40;4.60;;;;;;;10.71;77.89;97695.66;5050530;28;20290;-75
2023/03/17 09:03:40;;;;;;;8.13;4.60;;;;;;;10.88;76.03;97684.63;5052543;28;20214;-76
2023/03/17 09:06:08;;;;;;;4.50;3.87;;;;;;;11.11;70.82;97651.91;5052754;28;20619;-76
2023/03/17 09:08:37;;;;;;;8.53;4.33;;;;;;;11.23;68.65;97653.59;5051880;28;20296;-76
2023/03/17 09:11:04;;;;;;;6.87;4.83;;;;;;;11.39;66.92;97643.50;5052844;28;20259;-76
2023/03/17 09:13:32;;;;;;;7.07;3.70;;;;;;;11.57;64.94;97629.59;5052888;28;20328;-76
2023/03/17 09:16:00;;;;;;;5.23;4.23;;;;;;;11.73;66.47;97632.72;5052899;28;20670;-76
2023/03/17 09:18:27;;;;;;;3.97;2.77;;;;;;;11.92;63.62;97624.94;5052778;28;20243;-76
2023/03/17 09:20:53;;;;;;;4.10;3.50;;;;;;;12.12;63.82;97625.97;5052498;28;20274;-76
2023/03/17 09:23:22;;;;;;;4.40;3.60;;;;;;;12.14;61.82;97618.72;5052848;28;20693;-76
2023/03/17 09:25:48;;;;;;;4.27;3.60;;;;;;;12.40;64.45;97630.63;5052918;28;20211;-76
2023/03/17 09:28:15;;;;;;;3.50;2.80;;;;;;;12.45;61.75;97608.06;5052798;28;20586;-76
2023/03/17 09:30:43;;;;;;;6.77;3.37;;;;;;;12.47;60.09;97602.66;5052583;28;20235;-76
2023/03/17 09:33:10;;;;;;;3.73;3.20;;;;;;;12.49;59.59;97608.66;5052671;28;20212;-75
2023/03/17 09:35:37;;;;;;;4.20;2.73;;;;;;;12.52;61.26;97621.63;5052674;28;20292;-76
2023/03/17 09:38:04;;;;;;;3.30;2.87;;;;;;;12.51;60.26;97606.69;5052533;28;20282;-75
2023/03/17 09:40:32;;;;;;;3.10;2.73;;;;;;;12.54;59.64;97620.53;5052184;28;20583;-76
2023/03/17 09:43:07;;;;;;;3.97;2.63;;;;;;;12.46;57.45;97587.72;5052335;28;20208;-75
2023/03/17 09:45:36;;;;;;;3.17;2.70;;;;;;;12.55;58.88;97616.06;5052181;28;20276;-75
2023/03/17 09:48:31;;;;;;;3.70;2.40;;;;;;;12.85;59.79;97624.06;5051279;28;20218;-75
2023/03/17 09:51:00;;;;;;;3.30;2.10;;;;;;;12.88;56.57;97599.91;5051863;28;20224;-75
2023/03/17 09:53:32;;;;;;;3.80;2.37;;;;;;;13.01;57.18;97605.88;5052032;28;20206;-75
2023/03/17 09:56:02;;;;;;;3.33;2.20;;;;;;;13.20;56.73;97605.94;5052080;28;20214;-76
2023/03/17 09:58:31;;;;;;;2.30;2.00;;;;;;;13.30;56.55;97596.19;5052441;28;20212;-76
2023/03/17 10:00:58;;;;;;;4.13;2.50;;;;;;;13.37;57.34;97605.28;5051631;28;20238;-74
2023/03/17 10:03:26;;;;;;;4.30;2.20;;;;;;;13.51;55.32;97589.81;5051963;28;20255;-76
2023/03/17 10:05:53;;;;;;;2.43;1.77;;;;;;;13.63;54.84;97594.03;5051836;28;20216;-76
2023/03/17 10:08:24;;;;;;;2.10;1.80;;;;;;;13.77;54.45;97584.81;5051735;28;20628;-76
2023/03/17 10:10:56;;;;;;;2.73;2.50;;;;;;;14.04;55.66;97590.25;5051750;28;20228;-76
2023/03/17 10:13:33;;;;;;;2.90;2.30;;;;;;;14.18;54.86;97584.53;5051556;28;20700;-76
2023/03/17 10:16:06;;;;;;;3.33;2.30;;;;;;;14.29;53.39;97576.47;5051788;28;20213;-76
2023/03/17 10:18:43;;;;;;;1.97;1.77;;;;;;;14.22;52.07;97554.91;5051677;28;20322;-75
2023/03/17 10:21:15;;;;;;;3.03;2.10;;;;;;;14.33;54.20;97575.16;5051416;28;20612;-76
2023/03/17 10:23:42;;;;;;;3.70;2.40;;;;;;;14.38;53.32;97560.50;5051673;28;20212;-76
2023/03/17 10:26:21;;;;;;;2.50;2.03;;;;;;;14.41;51.76;97533.59;5051587;28;20729;-75
2023/03/17 10:28:48;;;;;;;6.00;1.93;;;;;;;14.48;55.57;97585.22;5051468;28;20249;-75
2023/03/17 10:31:17;;;;;;;2.83;1.77;;;;;;;14.57;54.12;97567.56;5051054;28;20226;-75
2023/03/17 10:33:51;;;;;;;2.73;2.00;;;;;;;14.52;51.91;97529.91;5051224;28;20227;-76
2023/03/17 10:36:31;;;;;;;2.67;2.17;;;;;;;14.53;53.33;97552.88;5051542;28;20205;-74
2023/03/17 10:38:58;;;;;;;2.77;2.47;;;;;;;14.54;53.21;97543.94;5051402;28;20214;-75
2023/03/17 10:41:35;;;;;;;2.97;2.20;;;;;;;14.50;53.16;97543.38;5050900;28;20226;-74
2023/03/17 10:44:08;;;;;;;2.87;2.27;;;;;;;14.57;55.19;97570.22;5051138;28;20255;-75
2023/03/17 10:46:37;;;;;;;3.13;2.00;;;;;;;14.67;54.61;97557.75;5051211;28;20207;-76
2023/03/17 10:49:09;;;;;;;4.63;2.30;;;;;;;14.79;53.87;97548.59;5050991;28;20684;-76
2023/03/17 10:51:39;;;;;;;3.60;2.23;;;;;;;14.96;53.92;97555.81;5051143;28;20227;-76
2023/03/17 10:54:09;;;;;;;3.00;2.30;;;;;;;15.09;50.87;97529.69;5051024;28;20261;-76
2023/03/17 10:56:38;;;;;;;2.83;2.20;;;;;;;15.10;47.61;97489.59;5051374;28;20203;-76
2023/03/17 10:59:07;;;;;;;5.40;2.27;;;;;;;15.21;48.68;97501.91;5050670;28;20213;-76
2023/03/17 11:01:38;;;;;;;2.17;1.80;;;;;;;15.47;49.96;97524.16;5051004;28;20227;-76
2023/03/17 11:04:28;;;;;;;2.87;1.50;;;;;;;15.90;47.55;97490.44;5050913;28;20218;-76
2023/03/17 11:06:56;;;;;;;2.00;1.42;;;;;;;16.13;46.22;97479.13;5050690;28;20496;-76
2023/03/17 11:09:27;;;;;;;1.97;1.50;;;;;;;16.19;44.76;97462.50;5050667;28;20298;-75
2023/03/17 11:12:02;;;;;;;1.50;1.40;;;;;;;16.26;45.72;97460.88;5050988;28;20596;-76
2023/03/17 11:14:29;;;;;;;2.00;1.40;;;;;;;16.24;43.46;97441.53;5051051;28;20321;-77
2023/03/17 11:16:57;;;;;;;3.33;1.50;;;;;;;16.34;48.41;97500.94;5051199;28;20252;-75
2023/03/17 11:19:40;;;;;;;2.57;1.47;;;;;;;16.36;47.86;97482.09;5050508;28;20222;-78
2023/03/17 11:22:11;;;;;;;1.93;1.40;;;;;;;16.41;45.53;97458.50;5074664;22;20246;-80
2023/03/17 11:24:45;;;;;;;3.63;1.50;;;;;;;16.57;47.63;97486.09;5070597;28;20206;-78
2023/03/17 11:27:24;;;;;;;2.40;1.60;;;;;;;16.73;50.21;97512.88;5070694;28;20221;-77
2023/03/17 11:30:09;;;;;;;2.40;1.27;;;;;;;16.77;46.34;97470.69;5070514;28;20316;-80
2023/03/17 11:32:40;;;;;;;3.03;1.60;;;;;;;16.78;48.52;97494.56;5070523;28;20230;-78
2023/03/17 11:35:34;;;;;;;3.67;1.60;;;;;;;16.77;46.89;97468.84;5070508;28;20234;-79
2023/03/17 11:38:28;;;;;;;4.73;1.90;;;;;;;16.85;50.01;97500.09;5070726;28;20687;-79
2023/03/17 11:41:17;;;;;;;3.33;1.40;;;;;;;16.92;50.08;97496.63;5022971;28;20233;-79